Time;durP1;ratioP1;P1;durP2;ratioP2;P2;SDS_P1;SDS_P2;PMS_P1;PMS_P2;Temp;Humidity;BMP_temperature;BMP_pressure;BME280_temperature;BME280_humidity;BME280_pressure;Samples;Min_cycle;Max_cycle;Signal;HPM_P1;HPM_P2
2021/11/21 00:02:14;;;;;;;19.67;9.27;;;;;;;15.46;53.95;100515.28;4993245;28;20126;-64
2021/11/21 00:04:41;;;;;;;20.03;10.27;;;;;;;15.44;53.63;100514.75;4988030;28;20050;-68
2021/11/21 00:07:08;;;;;;;27.33;10.83;;;;;;;15.40;53.95;100511.75;4977116;28;20126;-67
2021/11/21 00:09:35;;;;;;;22.57;10.63;;;;;;;15.39;53.67;100513.72;4994195;28;20145;-67
2021/11/21 00:12:02;;;;;;;25.80;11.33;;;;;;;15.40;53.76;100506.94;5013829;28;20108;-70
2021/11/21 00:14:30;;;;;;;24.43;10.00;;;;;;;15.43;53.72;100516.75;4966509;28;20043;-68
2021/11/21 00:17:01;;;;;;;23.53;10.30;;;;;;;15.38;53.68;100520.50;4990597;28;20124;-68
2021/11/21 00:19:28;;;;;;;21.07;9.77;;;;;;;15.25;54.38;100515.72;4992488;28;20054;-69
2021/11/21 00:21:55;;;;;;;20.50;10.40;;;;;;;15.09;54.97;100509.56;4993049;28;20100;-70
2021/11/21 00:24:22;;;;;;;17.10;8.73;;;;;;;15.03;55.08;100524.88;4991157;28;20141;-70
2021/11/21 00:26:49;;;;;;;22.17;10.27;;;;;;;15.00;55.04;100516.22;4970600;28;20085;-68
2021/11/21 00:29:15;;;;;;;22.10;9.37;;;;;;;15.01;55.25;100515.94;4991226;28;20447;-70
2021/11/21 00:31:42;;;;;;;20.83;9.87;;;;;;;15.07;54.90;100513.81;4992745;28;20093;-69
2021/11/21 00:34:09;;;;;;;18.53;10.40;;;;;;;15.04;55.16;100517.25;4991771;28;20129;-65
2021/11/21 00:36:36;;;;;;;24.20;10.60;;;;;;;14.95;55.32;100493.84;4991755;28;20046;-65
2021/11/21 00:39:04;;;;;;;28.50;10.83;;;;;;;14.87;55.46;100499.03;4974783;28;20129;-63
2021/11/21 00:41:31;;;;;;;21.43;10.17;;;;;;;14.90;55.61;100497.56;4990859;28;20494;-63
2021/11/21 00:43:57;;;;;;;19.30;9.13;;;;;;;14.90;55.72;100501.19;4991268;28;20129;-63
2021/11/21 00:46:26;;;;;;;17.90;9.73;;;;;;;14.98;55.50;100510.91;4990979;28;20078;-64
2021/11/21 00:48:54;;;;;;;23.53;10.80;;;;;;;15.03;55.37;100501.53;4991846;28;20449;-65
2021/11/21 00:51:20;;;;;;;19.53;9.50;;;;;;;15.06;55.23;100489.66;4991955;28;20522;-64
2021/11/21 00:53:52;;;;;;;24.67;10.83;;;;;;;15.09;54.92;100491.84;4992260;28;20074;-68
2021/11/21 00:56:19;;;;;;;22.27;9.37;;;;;;;15.20;54.89;100498.94;4987686;28;20550;-69
2021/11/21 00:58:46;;;;;;;20.37;9.30;;;;;;;15.18;54.94;100487.19;4988116;28;20046;-68
2021/11/21 01:01:13;;;;;;;23.67;10.10;;;;;;;15.14;54.80;100486.97;4988372;28;20133;-67
2021/11/21 01:03:42;;;;;;;17.83;9.77;;;;;;;15.08;54.96;100482.59;4986968;28;20120;-68
2021/11/21 01:06:09;;;;;;;23.43;9.30;;;;;;;14.96;55.15;100473.00;4988480;28;20077;-74
2021/11/21 01:08:36;;;;;;;22.80;10.00;;;;;;;15.01;55.40;100492.56;4992163;28;20054;-74
2021/11/21 01:11:05;;;;;;;19.63;9.93;;;;;;;14.96;55.67;100493.50;4991071;28;20093;-72
2021/11/21 01:13:32;;;;;;;19.80;9.80;;;;;;;14.97;55.71;100485.91;4991854;28;20096;-72
2021/11/21 01:15:59;;;;;;;18.60;9.03;;;;;;;14.78;55.41;100457.91;4992014;28;20125;-72
2021/11/21 01:18:27;;;;;;;19.13;9.47;;;;;;;14.93;55.47;100475.28;4991095;28;20046;-69
2021/11/21 01:20:54;;;;;;;16.57;8.67;;;;;;;14.92;55.69;100487.69;4991470;28;20138;-72
2021/11/21 01:23:22;;;;;;;21.97;9.93;;;;;;;14.92;55.83;100481.22;4991722;28;20050;-62
2021/11/21 01:25:49;;;;;;;22.50;8.73;;;;;;;14.79;55.83;100457.56;4989392;28;20128;-63
2021/11/21 01:28:16;;;;;;;17.77;8.27;;;;;;;14.91;55.65;100477.59;4988366;28;20492;-63
2021/11/21 01:30:44;;;;;;;23.87;9.57;;;;;;;14.86;55.75;100474.03;4976640;28;20487;-71
2021/11/21 01:33:12;;;;;;;17.63;8.30;;;;;;;14.89;55.82;100473.41;4990937;28;20091;-70
2021/11/21 01:35:39;;;;;;;19.23;8.20;;;;;;;14.90;55.90;100473.09;4991855;28;20050;-70
2021/11/21 01:38:06;;;;;;;21.20;10.10;;;;;;;14.84;55.92;100471.53;4991522;28;20138;-69
2021/11/21 01:40:33;;;;;;;17.07;9.13;;;;;;;14.78;56.18;100475.59;4991344;28;20074;-69
2021/11/21 01:43:01;;;;;;;18.97;8.23;;;;;;;14.70;56.35;100465.09;4990861;28;20084;-64
2021/11/21 01:45:31;;;;;;;17.27;7.87;;;;;;;14.68;56.78;100478.59;4990317;28;20070;-64
2021/11/21 01:47:58;;;;;;;;;;;;;;;14.61;56.83;100469.75;4987737;28;20129;-64
2021/11/21 01:50:30;;;;;;;14.60;8.10;;;;;;;14.55;56.62;100459.72;4991718;28;20369;-67
2021/11/21 01:52:58;;;;;;;23.17;9.20;;;;;;;14.66;56.37;100475.25;4990108;28;20077;-68
2021/11/21 01:55:26;;;;;;;20.53;8.20;;;;;;;14.68;56.36;100475.78;4991262;28;20134;-65
2021/11/21 01:57:54;;;;;;;17.23;8.33;;;;;;;14.67;56.49;100468.50;4987940;28;20050;-66
2021/11/21 02:00:24;;;;;;;15.90;8.50;;;;;;;14.63;56.64;100470.25;4989280;28;20088;-63
2021/11/21 02:02:51;;;;;;;;;;;;;;;14.57;57.05;100466.72;4987110;28;20046;-65
2021/11/21 02:05:18;;;;;;;19.67;8.33;;;;;;;14.53;57.09;100474.09;4991357;28;19928;-67
2021/11/21 02:07:47;;;;;;;15.33;8.17;;;;;;;14.46;57.26;100471.66;4983704;28;20130;-69
2021/11/21 02:10:18;;;;;;;17.67;9.10;;;;;;;14.39;57.39;100471.22;4990204;28;20494;-69
2021/11/21 02:12:46;;;;;;;19.27;8.50;;;;;;;14.34;57.82;100473.28;4990472;28;20050;-64
2021/11/21 02:15:15;;;;;;;17.70;9.37;;;;;;;14.28;57.70;100461.28;4991465;28;20559;-64
2021/11/21 02:17:43;;;;;;;18.15;9.88;;;;;;;14.30;57.72;100466.63;4990413;28;20451;-67
2021/11/21 02:20:14;;;;;;;19.10;8.83;;;;;;;14.27;58.03;100456.84;4988987;28;20146;-67
2021/11/21 02:22:41;;;;;;;17.80;8.87;;;;;;;14.24;57.91;100463.06;4990612;28;20170;-69
2021/11/21 02:25:09;;;;;;;18.97;10.00;;;;;;;14.29;57.92;100460.19;4990076;28;20096;-69
2021/11/21 02:27:37;;;;;;;17.40;8.53;;;;;;;14.32;58.03;100462.34;4991312;28;20096;-69
2021/11/21 02:30:07;;;;;;;15.23;8.50;;;;;;;14.28;57.96;100457.66;4990417;28;20101;-71
2021/11/21 02:32:35;;;;;;;17.03;8.43;;;;;;;14.34;57.95;100460.06;4984093;28;20078;-70
2021/11/21 02:35:03;;;;;;;14.63;7.37;;;;;;;14.38;58.00;100463.94;4991273;28;20085;-70
2021/11/21 02:37:30;;;;;;;16.77;8.50;;;;;;;14.39;57.90;100474.03;4992808;28;20121;-70
2021/11/21 02:39:56;;;;;;;16.10;8.33;;;;;;;14.39;57.85;100465.63;4987005;28;20146;-70
2021/11/21 02:42:34;;;;;;;14.20;6.63;;;;;;;14.36;57.93;100460.63;4993402;28;20479;-67
2021/11/21 02:45:06;;;;;;;19.67;8.47;;;;;;;14.35;57.93;100469.31;4995140;28;20046;-67
2021/11/21 02:47:34;;;;;;;17.33;8.00;;;;;;;14.30;58.08;100463.81;4991528;28;20116;-67
2021/11/21 02:50:10;;;;;;;16.17;7.00;;;;;;;14.23;58.37;100461.41;4993952;28;20082;-67
2021/11/21 02:52:37;;;;;;;14.63;8.30;;;;;;;14.15;58.55;100453.66;4993967;28;20089;-64
2021/11/21 02:55:05;;;;;;;14.23;8.40;;;;;;;14.12;58.90;100457.06;4977289;28;20470;-65
2021/11/21 02:57:32;;;;;;;16.13;9.50;;;;;;;14.03;59.02;100451.34;4975642;28;20051;-64
2021/11/21 03:00:00;;;;;;;16.20;7.40;;;;;;;13.99;59.12;100439.91;4973146;28;20070;-64
2021/11/21 03:02:28;;;;;;;17.83;7.80;;;;;;;14.04;59.09;100449.38;4995678;28;20053;-64
2021/11/21 03:04:56;;;;;;;15.97;7.17;;;;;;;13.86;59.29;100418.22;4994084;28;20050;-64
2021/11/21 03:07:23;;;;;;;14.27;6.93;;;;;;;13.98;59.42;100441.03;4993805;28;20089;-64
2021/11/21 03:09:51;;;;;;;17.43;7.90;;;;;;;14.01;59.33;100439.56;4994380;28;20073;-67
2021/11/21 03:12:20;;;;;;;15.50;8.07;;;;;;;14.00;59.39;100429.50;4993114;28;20125;-67
2021/11/21 03:14:47;;;;;;;13.17;6.77;;;;;;;14.02;59.54;100444.06;4962417;28;20047;-69
2021/11/21 03:17:14;;;;;;;11.83;6.93;;;;;;;13.72;59.57;100378.03;4990524;28;20093;-63
2021/11/21 03:19:41;;;;;;;19.10;6.07;;;;;;;13.99;59.62;100425.03;4992498;28;20466;-63
2021/11/21 03:22:08;;;;;;;16.83;6.93;;;;;;;14.08;59.60;100440.00;4992958;28;20073;-64
2021/11/21 03:24:35;;;;;;;20.03;7.40;;;;;;;14.08;59.50;100428.78;4994868;28;20423;-58
2021/11/21 03:27:02;;;;;;;17.27;6.83;;;;;;;14.18;59.41;100441.81;4992420;28;20494;-58
2021/11/21 03:29:29;;;;;;;17.73;6.67;;;;;;;14.24;59.25;100434.97;4991786;28;20116;-59
2021/11/21 03:31:56;;;;;;;16.67;6.77;;;;;;;14.29;59.00;100431.22;4992490;28;20092;-62
2021/11/21 03:34:23;;;;;;;13.77;5.57;;;;;;;14.28;58.78;100416.34;4993114;28;20060;-62
2021/11/21 03:36:50;;;;;;;23.73;7.93;;;;;;;14.34;58.79;100429.16;4986737;28;20530;-62
2021/11/21 03:39:17;;;;;;;14.67;6.60;;;;;;;14.27;58.97;100417.50;4993192;28;20089;-62
2021/11/21 03:41:44;;;;;;;26.77;7.57;;;;;;;14.23;59.07;100427.69;4992067;28;20146;-63
2021/11/21 03:44:11;;;;;;;26.47;7.70;;;;;;;14.18;59.36;100424.97;4984493;28;20089;-64
2021/11/21 03:46:39;;;;;;;11.53;6.03;;;;;;;14.03;59.46;100400.81;4994094;28;20078;-67
2021/11/21 03:49:07;;;;;;;12.63;5.77;;;;;;;14.05;59.45;100403.28;4992886;28;20077;-68
2021/11/21 03:51:34;;;;;;;15.00;6.53;;;;;;;14.17;59.55;100414.88;4991676;28;20479;-65
2021/11/21 03:54:01;;;;;;;12.20;6.93;;;;;;;14.10;59.53;100411.63;4992634;28;20085;-62
2021/11/21 03:56:28;;;;;;;12.17;6.20;;;;;;;14.09;59.62;100408.00;4990848;28;20451;-63
2021/11/21 03:58:55;;;;;;;20.60;5.90;;;;;;;14.07;59.75;100413.06;4992159;28;20066;-63
2021/11/21 04:01:22;;;;;;;11.50;6.30;;;;;;;14.08;59.79;100408.28;4992628;28;20137;-63
2021/11/21 04:03:50;;;;;;;13.47;6.97;;;;;;;14.08;59.83;100417.53;4989675;28;20137;-63
2021/11/21 04:06:17;;;;;;;10.50;6.17;;;;;;;14.05;59.68;100411.72;4992472;28;20074;-63
2021/11/21 04:08:44;;;;;;;16.60;7.27;;;;;;;14.04;59.66;100413.69;4989409;28;20117;-62
2021/11/21 04:11:11;;;;;;;20.23;6.17;;;;;;;14.02;59.79;100412.31;4989892;28;20129;-65
2021/11/21 04:13:38;;;;;;;17.97;8.53;;;;;;;14.06;59.67;100414.22;4992833;28;20061;-65
2021/11/21 04:16:05;;;;;;;19.20;6.57;;;;;;;13.77;59.82;100368.69;4993293;28;20458;-65
2021/11/21 04:18:33;;;;;;;17.77;7.07;;;;;;;13.96;60.01;100412.44;4992482;28;20101;-64
2021/11/21 04:21:00;;;;;;;17.17;7.67;;;;;;;13.95;59.99;100409.94;4967311;28;20078;-65
2021/11/21 04:23:30;;;;;;;16.50;6.70;;;;;;;13.94;60.12;100406.28;4979160;28;20047;-64
2021/11/21 04:25:59;;;;;;;17.30;6.93;;;;;;;13.94;60.23;100397.84;4982596;28;20475;-60
2021/11/21 04:28:27;;;;;;;16.13;7.50;;;;;;;13.97;60.14;100402.84;4989746;28;20371;-60
2021/11/21 04:30:55;;;;;;;17.30;8.13;;;;;;;13.90;59.95;100373.53;4980611;28;20081;-64
2021/11/21 04:33:23;;;;;;;11.73;6.47;;;;;;;14.02;59.92;100395.47;4993068;28;20137;-63
2021/11/21 04:35:51;;;;;;;16.53;6.67;;;;;;;13.92;60.37;100385.28;4992526;28;20074;-66
2021/11/21 04:38:20;;;;;;;22.07;6.70;;;;;;;13.96;60.12;100392.78;4991075;28;20074;-70
2021/11/21 04:40:48;;;;;;;13.80;6.70;;;;;;;13.97;60.01;100386.00;4991728;28;20469;-69
2021/11/21 04:43:15;;;;;;;14.90;6.13;;;;;;;13.99;59.89;100389.34;4991407;28;20101;-72
2021/11/21 04:45:42;;;;;;;10.60;6.27;;;;;;;14.20;59.49;100400.22;4988263;28;20082;-71
2021/11/21 04:48:09;;;;;;;10.83;5.70;;;;;;;14.08;59.90;100392.28;4988571;28;20505;-80
2021/11/21 04:50:37;;;;;;;15.53;6.03;;;;;;;14.02;60.16;100389.88;4989167;28;20081;-77
2021/11/21 04:53:04;;;;;;;17.23;5.93;;;;;;;13.88;60.70;100398.25;4992654;28;20050;-74
2021/11/21 04:55:32;;;;;;;10.27;4.27;;;;;;;13.78;61.00;100387.19;4990042;28;20491;-78
2021/11/21 04:57:59;;;;;;;12.53;6.53;;;;;;;13.69;61.13;100385.09;4987477;28;20121;-69
2021/11/21 05:00:27;;;;;;;17.90;6.50;;;;;;;13.63;61.38;100385.47;4990620;28;20129;-71
2021/11/21 05:02:54;;;;;;;18.83;7.90;;;;;;;13.58;61.53;100379.97;4992524;28;20133;-70
2021/11/21 05:05:25;;;;;;;15.20;6.60;;;;;;;13.41;61.68;100364.50;4986408;28;20046;-69
2021/11/21 05:07:53;;;;;;;9.70;5.97;;;;;;;13.49;61.72;100383.44;4992032;28;20097;-69
2021/11/21 05:10:22;;;;;;;18.30;6.33;;;;;;;13.46;61.95;100389.66;4990256;28;20129;-69
2021/11/21 05:12:49;;;;;;;12.23;5.33;;;;;;;13.45;62.04;100390.78;4988053;28;20138;-68
2021/11/21 05:15:19;;;;;;;15.27;6.30;;;;;;;13.41;62.05;100391.72;4988786;28;20050;-68
2021/11/21 05:17:48;;;;;;;13.90;5.88;;;;;;;13.36;62.13;100387.00;4984115;28;20133;-68
2021/11/21 05:20:16;;;;;;;16.83;7.20;;;;;;;13.34;62.16;100378.06;4991955;28;20391;-68
2021/11/21 05:22:45;;;;;;;17.77;7.43;;;;;;;13.35;62.43;100384.50;4989594;28;20112;-70
2021/11/21 05:25:14;;;;;;;12.50;6.63;;;;;;;13.35;62.43;100384.50;4991690;28;20093;-66
2021/11/21 05:27:46;;;;;;;18.67;7.03;;;;;;;13.31;62.29;100373.06;4990553;28;20512;-70
2021/11/21 05:30:15;;;;;;;17.70;6.77;;;;;;;13.44;62.21;100383.53;4991267;28;20085;-70
2021/11/21 05:32:42;;;;;;;21.30;7.70;;;;;;;13.48;62.07;100381.78;4990972;28;20081;-69
2021/11/21 05:35:09;;;;;;;19.40;6.97;;;;;;;13.52;62.11;100380.03;4991180;28;20085;-63
2021/11/21 05:37:37;;;;;;;15.90;6.10;;;;;;;13.55;62.07;100383.38;4987221;28;20538;-68
2021/11/21 05:40:06;;;;;;;11.03;5.93;;;;;;;13.65;61.62;100371.97;4991305;28;20050;-68
2021/11/21 05:42:33;;;;;;;19.13;8.20;;;;;;;13.73;61.14;100379.69;4992016;28;20548;-65
2021/11/21 05:45:00;;;;;;;25.67;7.63;;;;;;;13.86;60.82;100378.09;4990803;28;20050;-67
2021/11/21 05:47:28;;;;;;;16.40;6.60;;;;;;;13.93;60.53;100384.13;4969559;28;20042;-67
2021/11/21 05:49:55;;;;;;;13.50;6.33;;;;;;;13.85;60.33;100363.22;4988381;28;20141;-65
2021/11/21 05:52:22;;;;;;;11.90;4.93;;;;;;;13.91;60.41;100370.41;4990269;28;20050;-68
2021/11/21 05:54:50;;;;;;;17.57;5.40;;;;;;;13.91;60.39;100377.97;4989824;28;20549;-64
2021/11/21 05:57:17;;;;;;;20.93;7.70;;;;;;;13.82;60.11;100357.38;4989462;28;20078;-62
2021/11/21 05:59:44;;;;;;;20.80;7.47;;;;;;;13.64;59.82;100342.22;4991378;28;20085;-64
2021/11/21 06:02:11;;;;;;;14.90;6.43;;;;;;;13.81;60.07;100376.22;4989559;28;20133;-64
2021/11/21 06:04:38;;;;;;;17.23;6.73;;;;;;;13.67;60.38;100361.28;4990684;28;20054;-65
2021/11/21 06:07:07;;;;;;;12.73;6.53;;;;;;;13.62;60.83;100379.03;4989791;28;20046;-61
2021/11/21 06:09:34;;;;;;;14.93;5.93;;;;;;;13.54;61.00;100376.06;4990671;28;20407;-61
2021/11/21 06:12:01;;;;;;;15.67;7.00;;;;;;;13.48;61.07;100373.34;4990144;28;20078;-63
2021/11/21 06:14:30;;;;;;;12.90;6.60;;;;;;;13.42;61.30;100373.75;4996554;28;20061;-62
2021/11/21 06:16:59;;;;;;;11.87;6.20;;;;;;;13.42;61.23;100370.94;4994175;28;20081;-65
2021/11/21 06:19:26;;;;;;;11.03;6.10;;;;;;;13.45;60.93;100370.34;4993607;28;20472;-62
2021/11/21 06:21:53;;;;;;;14.77;6.23;;;;;;;13.40;61.20;100382.47;4995023;28;20557;-63
2021/11/21 06:24:20;;;;;;;20.60;6.20;;;;;;;13.40;61.23;100382.47;4991113;28;20046;-62
2021/11/21 06:26:47;;;;;;;24.53;7.30;;;;;;;13.37;61.23;100388.69;4987266;28;20158;-63
2021/11/21 06:29:14;;;;;;;19.37;6.13;;;;;;;13.30;61.27;100377.03;4995070;28;20050;-62
2021/11/21 06:31:41;;;;;;;20.20;7.10;;;;;;;13.20;61.64;100379.94;4989188;28;20159;-62
2021/11/21 06:34:08;;;;;;;13.37;6.40;;;;;;;13.10;61.99;100368.88;4989384;28;20379;-60
2021/11/21 06:36:36;;;;;;;16.33;6.50;;;;;;;13.03;62.30;100377.66;4990975;28;20139;-69
2021/11/21 06:39:04;;;;;;;18.07;7.57;;;;;;;12.95;62.71;100367.91;4993254;28;20050;-60
2021/11/21 06:41:30;;;;;;;20.57;8.57;;;;;;;12.97;62.68;100382.47;4985372;28;20130;-59
2021/11/21 06:43:57;;;;;;;15.30;7.27;;;;;;;12.92;62.36;100368.56;4990413;28;20137;-61
2021/11/21 06:46:24;;;;;;;16.40;7.53;;;;;;;12.85;62.29;100359.66;4994668;28;20133;-62
2021/11/21 06:48:51;;;;;;;15.97;6.93;;;;;;;12.92;62.72;100370.50;4993021;28;20566;-62
2021/11/21 06:51:18;;;;;;;16.50;5.90;;;;;;;12.88;63.07;100387.06;4994605;28;20068;-64
2021/11/21 06:53:47;;;;;;;21.53;8.07;;;;;;;12.81;63.63;100381.84;4994281;28;20082;-64
2021/11/21 06:56:15;;;;;;;13.18;6.55;;;;;;;12.75;63.80;100368.19;4990591;28;20133;-60
2021/11/21 06:58:43;;;;;;;17.07;6.40;;;;;;;12.78;64.04;100378.81;4987673;28;20142;-64
2021/11/21 07:01:09;;;;;;;15.43;6.23;;;;;;;12.79;64.15;100388.91;4994618;28;20046;-61
2021/11/21 07:03:36;;;;;;;17.87;7.53;;;;;;;12.85;64.02;100384.03;4989329;28;20061;-58
2021/11/21 07:06:03;;;;;;;18.87;6.57;;;;;;;12.82;64.10;100382.69;4989889;28;20488;-68
2021/11/21 07:08:30;;;;;;;13.40;6.60;;;;;;;12.92;64.07;100396.56;4991603;28;20047;-71
2021/11/21 07:10:57;;;;;;;15.13;7.00;;;;;;;12.91;64.10;100397.69;4990756;28;20069;-58
2021/11/21 07:13:24;;;;;;;17.60;6.63;;;;;;;12.89;64.19;100399.97;4993553;28;20129;-59
2021/11/21 07:15:51;;;;;;;15.80;6.27;;;;;;;12.88;64.15;100403.88;4994310;28;20077;-60
2021/11/21 07:18:18;;;;;;;19.60;7.10;;;;;;;12.87;64.26;100410.63;4994007;28;20046;-60
2021/11/21 07:20:45;;;;;;;15.77;6.00;;;;;;;12.83;64.54;100406.78;4989119;28;20047;-59
2021/11/21 07:23:17;;;;;;;12.47;6.27;;;;;;;12.79;64.40;100406.53;4992000;28;20042;-59
2021/11/21 07:25:44;;;;;;;17.17;6.50;;;;;;;12.72;64.48;100396.84;4990115;28;20061;-59
2021/11/21 07:28:11;;;;;;;9.07;5.70;;;;;;;12.66;64.61;100404.44;4988852;28;20173;-58
2021/11/21 07:30:37;;;;;;;14.13;6.63;;;;;;;12.65;64.66;100401.94;4993244;28;20545;-58
2021/11/21 07:33:04;;;;;;;13.33;6.57;;;;;;;12.36;64.76;100363.63;4992540;28;20082;-58
2021/11/21 07:35:31;;;;;;;20.00;6.60;;;;;;;12.55;65.17;100391.72;4993063;28;20458;-58
2021/11/21 07:37:58;;;;;;;12.27;6.50;;;;;;;12.60;65.26;100407.59;4992237;28;20544;-58
2021/11/21 07:40:25;;;;;;;11.80;7.00;;;;;;;12.66;65.07;100409.22;4993396;28;20125;-58
2021/11/21 07:42:54;;;;;;;13.90;7.03;;;;;;;12.72;64.64;100405.25;4993039;28;20077;-58
2021/11/21 07:45:20;;;;;;;11.63;5.63;;;;;;;12.68;64.77;100398.53;4993904;28;20058;-59
2021/11/21 07:47:47;;;;;;;17.37;7.63;;;;;;;12.75;64.60;100404.63;4994394;28;20104;-61
2021/11/21 07:50:14;;;;;;;13.60;6.83;;;;;;;12.86;64.58;100423.00;4991337;28;20054;-61
2021/11/21 07:52:42;;;;;;;22.53;11.27;;;;;;;12.84;64.85;100405.63;4993087;28;20396;-60
2021/11/21 07:55:09;;;;;;;21.00;8.23;;;;;;;12.78;65.09;100402.03;4974188;28;20133;-60
2021/11/21 07:57:36;;;;;;;17.67;9.37;;;;;;;12.76;64.96;100401.53;4993757;28;20096;-61
2021/11/21 08:00:06;;;;;;;17.30;9.43;;;;;;;12.90;64.85;100412.84;4991788;28;20073;-60
2021/11/21 08:02:33;;;;;;;22.77;9.55;;;;;;;12.79;64.78;100389.72;4989844;28;20137;-61
2021/11/21 08:05:02;;;;;;;16.97;9.17;;;;;;;13.07;64.50;100436.75;4993230;28;20047;-61
2021/11/21 08:07:30;;;;;;;17.02;9.35;;;;;;;13.13;64.28;100427.97;4990364;28;20054;-61
2021/11/21 08:09:57;;;;;;;21.57;8.97;;;;;;;13.18;64.11;100424.25;4992307;28;20080;-61
2021/11/21 08:12:25;;;;;;;16.33;8.30;;;;;;;13.29;63.75;100420.19;4993240;28;20077;-61
2021/11/21 08:14:52;;;;;;;18.47;8.63;;;;;;;13.60;63.19;100440.22;4986818;28;20108;-61
2021/11/21 08:17:19;;;;;;;23.73;9.90;;;;;;;13.70;62.75;100436.44;4974473;28;20773;-61
2021/11/21 08:19:46;;;;;;;31.40;9.30;;;;;;;13.84;62.77;100436.50;4992339;28;20192;-62
2021/11/21 08:22:13;;;;;;;17.07;8.13;;;;;;;13.94;62.45;100439.97;4989787;28;20055;-61
2021/11/21 08:24:40;;;;;;;19.83;9.30;;;;;;;13.72;62.28;100401.31;4991887;28;20070;-62
2021/11/21 08:27:07;;;;;;;18.70;8.53;;;;;;;14.00;62.24;100443.53;4987463;28;20165;-61
2021/11/21 08:29:34;;;;;;;24.07;8.30;;;;;;;13.88;62.39;100444.03;4985617;28;20137;-61
2021/11/21 08:32:02;;;;;;;17.77;8.37;;;;;;;13.94;62.29;100450.38;4992349;28;20070;-60
2021/11/21 08:34:29;;;;;;;16.40;6.97;;;;;;;13.86;62.16;100429.44;4989069;28;20050;-58
2021/11/21 08:36:57;;;;;;;15.53;6.97;;;;;;;13.88;62.30;100443.16;4985346;28;20129;-56
2021/11/21 08:39:23;;;;;;;13.50;7.63;;;;;;;13.88;62.42;100454.38;4993595;28;20082;-56
2021/11/21 08:41:54;;;;;;;13.37;7.83;;;;;;;13.87;62.45;100450.75;4978526;28;20133;-58
2021/11/21 08:44:22;;;;;;;16.13;7.88;;;;;;;13.82;62.65;100450.00;4988267;28;20565;-56
2021/11/21 08:46:49;;;;;;;17.33;7.07;;;;;;;13.70;62.77;100442.88;4985664;28;20073;-56
2021/11/21 08:49:17;;;;;;;14.00;7.37;;;;;;;13.82;62.88;100472.47;4989497;28;20050;-55
2021/11/21 08:51:44;;;;;;;13.43;6.97;;;;;;;13.81;62.88;100463.22;4992543;28;20082;-54
2021/11/21 08:54:12;;;;;;;12.83;6.40;;;;;;;13.80;62.64;100455.09;4990983;28;20050;-56
2021/11/21 08:56:39;;;;;;;16.63;5.93;;;;;;;13.72;62.70;100451.00;4992303;28;20066;-56
2021/11/21 08:59:06;;;;;;;15.40;6.63;;;;;;;13.71;62.92;100460.56;4991959;28;20138;-55
2021/11/21 09:01:34;;;;;;;12.73;6.73;;;;;;;13.62;63.02;100457.59;4987728;28;20129;-54
2021/11/21 09:04:02;;;;;;;15.17;7.63;;;;;;;13.62;63.30;100456.78;4983297;28;20046;-58
2021/11/21 09:06:29;;;;;;;19.17;7.63;;;;;;;13.58;63.53;100466.94;4988913;28;20046;-56
2021/11/21 09:08:56;;;;;;;17.03;8.03;;;;;;;13.55;63.55;100461.94;4992472;28;20442;-54
2021/11/21 09:11:23;;;;;;;16.43;7.77;;;;;;;13.51;63.79;100456.91;4990772;28;20078;-58
2021/11/21 09:13:50;;;;;;;15.47;8.03;;;;;;;13.59;63.51;100463.81;4990555;28;20137;-53
2021/11/21 09:16:18;;;;;;;18.37;8.90;;;;;;;13.63;63.45;100452.81;4988756;28;20541;-55
2021/11/21 09:18:45;;;;;;;12.30;7.47;;;;;;;13.72;63.14;100471.47;4985231;28;20161;-55
2021/11/21 09:21:12;;;;;;;17.97;7.80;;;;;;;13.80;63.16;100464.34;4989240;28;20518;-53
2021/11/21 09:23:40;;;;;;;17.97;10.40;;;;;;;13.74;63.04;100445.91;4989803;28;20050;-54
2021/11/21 09:26:07;;;;;;;22.90;14.87;;;;;;;13.87;63.03;100459.16;4983578;28;20073;-56
2021/11/21 09:28:34;;;;;;;38.80;19.53;;;;;;;13.86;63.08;100457.50;4987886;28;20070;-56
2021/11/21 09:31:02;;;;;;;19.80;11.83;;;;;;;13.66;63.07;100430.59;4979923;28;20125;-55
2021/11/21 09:33:29;;;;;;;20.27;11.50;;;;;;;13.97;62.99;100464.63;4975799;28;20387;-56
2021/11/21 09:35:56;;;;;;;24.40;11.70;;;;;;;14.03;62.80;100456.13;4993198;28;20441;-56
2021/11/21 09:38:24;;;;;;;17.60;8.47;;;;;;;14.14;62.73;100466.03;4992257;28;20100;-55
2021/11/21 09:40:51;;;;;;;18.17;8.90;;;;;;;14.13;62.74;100468.03;4990489;28;20078;-55
2021/11/21 09:43:19;;;;;;;22.63;13.40;;;;;;;14.15;62.80;100454.53;4971399;28;20070;-55
2021/11/21 09:45:47;;;;;;;16.23;8.13;;;;;;;14.43;62.39;100461.03;4992667;28;20046;-54
2021/11/21 09:48:15;;;;;;;17.90;7.97;;;;;;;14.50;62.18;100466.28;4990529;28;20078;-55
2021/11/21 09:50:43;;;;;;;15.37;7.87;;;;;;;14.54;62.02;100469.31;4982170;28;20089;-56
2021/11/21 09:53:12;;;;;;;16.13;7.70;;;;;;;14.56;62.00;100469.81;4987683;28;20073;-54
2021/11/21 09:55:40;;;;;;;15.33;7.60;;;;;;;14.75;61.80;100462.16;4991328;28;20082;-53
2021/11/21 09:58:07;;;;;;;16.80;6.53;;;;;;;14.93;61.39;100464.03;4991886;28;20074;-56
2021/11/21 10:00:35;;;;;;;19.60;7.83;;;;;;;15.13;61.26;100473.22;4992176;28;20380;-56
2021/11/21 10:03:06;;;;;;;15.57;7.03;;;;;;;15.26;60.79;100469.56;4991781;28;20050;-56
2021/11/21 10:05:42;;;;;;;12.87;6.80;;;;;;;15.26;60.91;100471.53;4991152;28;20133;-56
2021/11/21 10:08:12;;;;;;;15.90;6.60;;;;;;;15.29;60.62;100466.13;4975363;28;20137;-56
2021/11/21 10:11:02;;;;;;;16.70;7.47;;;;;;;15.35;60.71;100462.06;4991449;28;20141;-56
2021/11/21 10:13:42;;;;;;;14.45;7.90;;;;;;;15.44;60.29;100470.56;4993201;28;20496;-53
2021/11/21 10:16:18;;;;;;;16.90;8.13;;;;;;;15.51;60.35;100465.34;4992428;28;20086;-56
2021/11/21 10:18:54;;;;;;;20.43;8.77;;;;;;;15.57;60.29;100468.88;4992429;28;20089;-58
2021/11/21 10:21:27;;;;;;;18.08;7.97;;;;;;;15.57;60.12;100450.00;4991158;28;20082;-57
2021/11/21 10:24:21;;;;;;;18.40;9.47;;;;;;;15.72;60.04;100467.72;4974506;28;20510;-56
2021/11/21 10:27:09;;;;;;;16.40;8.73;;;;;;;15.90;59.67;100463.06;4983406;28;20125;-57
2021/11/21 10:29:40;;;;;;;17.40;9.95;;;;;;;16.20;59.63;100467.13;4991881;28;20078;-56
2021/11/21 10:32:18;;;;;;;15.65;8.80;;;;;;;16.33;59.46;100461.41;4998225;28;20042;-56
2021/11/21 10:34:53;;;;;;;22.33;9.32;;;;;;;16.68;59.30;100467.25;4992059;28;20047;-56
2021/11/21 10:37:28;;;;;;;21.95;9.77;;;;;;;16.93;58.64;100467.75;4990554;28;20133;-56
2021/11/21 10:40:17;;;;;;;15.05;8.20;;;;;;;17.77;58.04;100456.16;4990028;28;20556;-56
2021/11/21 10:42:46;;;;;;;18.10;8.70;;;;;;;18.85;56.59;100459.03;4991928;28;20081;-56
2021/11/21 10:45:21;;;;;;;16.45;6.88;;;;;;;19.91;54.92;100460.09;4992017;28;20129;-56
2021/11/21 10:47:55;;;;;;;18.23;7.47;;;;;;;20.67;53.13;100458.88;4992149;28;20081;-56
2021/11/21 10:50:26;;;;;;;10.73;7.65;;;;;;;21.33;51.59;100455.03;4990024;28;20048;-57
2021/11/21 10:52:53;;;;;;;16.02;8.32;;;;;;;21.39;50.51;100465.84;4990980;28;20498;-57
2021/11/21 10:55:21;;;;;;;17.13;8.68;;;;;;;21.93;49.96;100459.84;4990866;28;20137;-56
2021/11/21 10:57:48;;;;;;;18.90;8.18;;;;;;;22.56;49.00;100472.63;4992458;28;20207;-57
2021/11/21 11:00:20;;;;;;;20.48;8.48;;;;;;;23.21;47.28;100458.94;4995702;28;20465;-56
2021/11/21 11:02:47;;;;;;;16.30;7.75;;;;;;;23.70;46.57;100466.28;4995516;28;20085;-57
2021/11/21 11:05:24;;;;;;;20.05;9.57;;;;;;;24.07;45.93;100430.44;4995155;28;20112;-55
2021/11/21 11:08:02;;;;;;;19.13;8.43;;;;;;;24.77;45.21;100452.22;4990039;28;20042;-57
2021/11/21 11:10:32;;;;;;;15.70;7.57;;;;;;;25.35;43.25;100448.34;4992564;28;20061;-57
2021/11/21 11:13:07;;;;;;;11.93;6.28;;;;;;;25.78;42.77;100443.31;4994530;28;20137;-57
2021/11/21 11:15:40;;;;;;;14.80;6.85;;;;;;;26.24;41.91;100440.25;4993347;28;20085;-57
2021/11/21 11:18:07;;;;;;;14.55;6.60;;;;;;;26.67;40.79;100450.19;4993985;28;20451;-57
2021/11/21 11:20:42;;;;;;;14.43;6.35;;;;;;;27.27;40.31;100436.84;4991938;28;20082;-57
2021/11/21 11:23:09;;;;;;;16.60;6.10;;;;;;;28.07;38.69;100431.25;4976000;28;20133;-57